sensor_id;sensor_type;location;lat;lon;timestamp;P1;durP1;ratioP1;P2;durP2;ratioP2
37321;SDS011;23697;48.684;9.032;2023-06-10T00:03:50;2.03;;;1.58;;
37321;SDS011;23697;48.684;9.032;2023-06-10T00:06:51;2.05;;;1.70;;
37321;SDS011;23697;48.684;9.032;2023-06-10T00:09:52;3.15;;;2.05;;
37321;SDS011;23697;48.684;9.032;2023-06-10T00:12:54;2.10;;;1.70;;
37321;SDS011;23697;48.684;9.032;2023-06-10T00:16:15;2.53;;;1.98;;
37321;SDS011;23697;48.684;9.032;2023-06-10T00:22:12;2.70;;;2.08;;
37321;SDS011;23697;48.684;9.032;2023-06-10T00:25:28;2.97;;;2.20;;
37321;SDS011;23697;48.684;9.032;2023-06-10T00:28:31;2.53;;;1.90;;
37321;SDS011;23697;48.684;9.032;2023-06-10T00:41:19;2.30;;;1.92;;
37321;SDS011;23697;48.684;9.032;2023-06-10T00:44:18;2.35;;;1.83;;
37321;SDS011;23697;48.684;9.032;2023-06-10T00:47:00;2.45;;;1.85;;
37321;SDS011;23697;48.684;9.032;2023-06-10T00:49:36;2.33;;;2.00;;
37321;SDS011;23697;48.684;9.032;2023-06-10T00:52:07;1.98;;;1.80;;
37321;SDS011;23697;48.684;9.032;2023-06-10T00:54:51;3.20;;;2.33;;
37321;SDS011;23697;48.684;9.032;2023-06-10T00:57:24;2.08;;;1.70;;
37321;SDS011;23697;48.684;9.032;2023-06-10T01:00:04;2.20;;;1.65;;
37321;SDS011;23697;48.684;9.032;2023-06-10T01:03:08;2.83;;;2.03;;
37321;SDS011;23697;48.684;9.032;2023-06-10T01:05:46;2.45;;;1.67;;
37321;SDS011;23697;48.684;9.032;2023-06-10T01:08:25;3.13;;;2.00;;
37321;SDS011;23697;48.684;9.032;2023-06-10T01:11:07;2.17;;;1.90;;
37321;SDS011;23697;48.684;9.032;2023-06-10T01:13:51;2.22;;;1.80;;
37321;SDS011;23697;48.684;9.032;2023-06-10T01:16:25;3.42;;;1.92;;
37321;SDS011;23697;48.684;9.032;2023-06-10T01:18:55;2.85;;;1.92;;
37321;SDS011;23697;48.684;9.032;2023-06-10T01:21:27;2.67;;;1.90;;
37321;SDS011;23697;48.684;9.032;2023-06-10T01:24:06;2.17;;;1.98;;
37321;SDS011;23697;48.684;9.032;2023-06-10T01:29:46;2.20;;;1.70;;
37321;SDS011;23697;48.684;9.032;2023-06-10T01:32:32;4.43;;;2.60;;
37321;SDS011;23697;48.684;9.032;2023-06-10T01:35:05;3.60;;;2.35;;
37321;SDS011;23697;48.684;9.032;2023-06-10T01:40:05;4.35;;;2.00;;
37321;SDS011;23697;48.684;9.032;2023-06-10T01:42:33;2.38;;;1.73;;
37321;SDS011;23697;48.684;9.032;2023-06-10T01:45:09;3.17;;;2.20;;
37321;SDS011;23697;48.684;9.032;2023-06-10T01:47:36;4.50;;;2.42;;
37321;SDS011;23697;48.684;9.032;2023-06-10T01:50:03;2.97;;;1.98;;
37321;SDS011;23697;48.684;9.032;2023-06-10T01:52:31;2.22;;;1.92;;
37321;SDS011;23697;48.684;9.032;2023-06-10T01:55:02;8.85;;;3.13;;
37321;SDS011;23697;48.684;9.032;2023-06-10T01:57:32;3.88;;;2.63;;
37321;SDS011;23697;48.684;9.032;2023-06-10T01:59:59;3.95;;;2.17;;
37321;SDS011;23697;48.684;9.032;2023-06-10T02:02:26;2.83;;;2.28;;
37321;SDS011;23697;48.684;9.032;2023-06-10T02:04:53;2.92;;;2.00;;
37321;SDS011;23697;48.684;9.032;2023-06-10T02:07:20;2.88;;;2.13;;
37321;SDS011;23697;48.684;9.032;2023-06-10T02:09:47;3.03;;;2.10;;
37321;SDS011;23697;48.684;9.032;2023-06-10T02:12:15;3.33;;;2.10;;
37321;SDS011;23697;48.684;9.032;2023-06-10T02:14:42;3.17;;;2.33;;
37321;SDS011;23697;48.684;9.032;2023-06-10T02:17:13;4.57;;;2.08;;
37321;SDS011;23697;48.684;9.032;2023-06-10T02:19:40;4.03;;;2.45;;
37321;SDS011;23697;48.684;9.032;2023-06-10T02:22:08;3.25;;;2.25;;
37321;SDS011;23697;48.684;9.032;2023-06-10T02:24:35;3.90;;;2.50;;
37321;SDS011;23697;48.684;9.032;2023-06-10T02:27:03;3.08;;;2.20;;
37321;SDS011;23697;48.684;9.032;2023-06-10T02:29:34;3.42;;;2.42;;
37321;SDS011;23697;48.684;9.032;2023-06-10T02:32:01;3.40;;;2.25;;
37321;SDS011;23697;48.684;9.032;2023-06-10T02:34:28;2.85;;;2.13;;
37321;SDS011;23697;48.684;9.032;2023-06-10T02:36:56;3.08;;;2.15;;
37321;SDS011;23697;48.684;9.032;2023-06-10T02:39:23;3.00;;;2.13;;
37321;SDS011;23697;48.684;9.032;2023-06-10T02:41:50;3.33;;;2.28;;
37321;SDS011;23697;48.684;9.032;2023-06-10T02:44:17;3.75;;;2.38;;
37321;SDS011;23697;48.684;9.032;2023-06-10T02:46:45;3.75;;;2.38;;
37321;SDS011;23697;48.684;9.032;2023-06-10T02:49:12;2.65;;;2.08;;
37321;SDS011;23697;48.684;9.032;2023-06-10T02:51:39;3.33;;;2.40;;
37321;SDS011;23697;48.684;9.032;2023-06-10T02:54:06;4.40;;;2.53;;
37321;SDS011;23697;48.684;9.032;2023-06-10T02:56:33;10.02;;;2.58;;
37321;SDS011;23697;48.684;9.032;2023-06-10T02:59:00;2.90;;;2.10;;
37321;SDS011;23697;48.684;9.032;2023-06-10T03:01:27;3.00;;;1.92;;
37321;SDS011;23697;48.684;9.032;2023-06-10T03:03:58;4.00;;;2.42;;
37321;SDS011;23697;48.684;9.032;2023-06-10T03:06:24;3.22;;;2.50;;
37321;SDS011;23697;48.684;9.032;2023-06-10T03:08:51;3.25;;;2.40;;
37321;SDS011;23697;48.684;9.032;2023-06-10T03:11:18;8.30;;;2.70;;
37321;SDS011;23697;48.684;9.032;2023-06-10T03:13:48;2.95;;;2.10;;
37321;SDS011;23697;48.684;9.032;2023-06-10T03:16:15;4.25;;;2.20;;
37321;SDS011;23697;48.684;9.032;2023-06-10T03:18:42;3.42;;;2.50;;
37321;SDS011;23697;48.684;9.032;2023-06-10T03:21:11;3.72;;;2.47;;
37321;SDS011;23697;48.684;9.032;2023-06-10T03:23:40;2.50;;;2.10;;
37321;SDS011;23697;48.684;9.032;2023-06-10T03:26:07;4.20;;;2.80;;
37321;SDS011;23697;48.684;9.032;2023-06-10T03:28:35;2.88;;;2.00;;
37321;SDS011;23697;48.684;9.032;2023-06-10T03:31:05;2.93;;;1.97;;
37321;SDS011;23697;48.684;9.032;2023-06-10T03:33:31;3.15;;;2.05;;
37321;SDS011;23697;48.684;9.032;2023-06-10T03:35:59;4.45;;;2.45;;
37321;SDS011;23697;48.684;9.032;2023-06-10T03:38:27;3.85;;;2.65;;
37321;SDS011;23697;48.684;9.032;2023-06-10T03:40:54;2.72;;;2.08;;
37321;SDS011;23697;48.684;9.032;2023-06-10T03:43:20;2.90;;;2.03;;
37321;SDS011;23697;48.684;9.032;2023-06-10T03:45:47;4.53;;;2.35;;
37321;SDS011;23697;48.684;9.032;2023-06-10T03:48:17;3.05;;;2.20;;
37321;SDS011;23697;48.684;9.032;2023-06-10T03:50:44;3.72;;;2.85;;
37321;SDS011;23697;48.684;9.032;2023-06-10T03:53:12;2.80;;;2.30;;
37321;SDS011;23697;48.684;9.032;2023-06-10T03:55:40;2.95;;;2.33;;
37321;SDS011;23697;48.684;9.032;2023-06-10T03:58:07;3.05;;;2.22;;
37321;SDS011;23697;48.684;9.032;2023-06-10T04:00:34;2.92;;;2.10;;
37321;SDS011;23697;48.684;9.032;2023-06-10T04:03:06;3.22;;;2.33;;
37321;SDS011;23697;48.684;9.032;2023-06-10T04:05:34;3.60;;;2.50;;
37321;SDS011;23697;48.684;9.032;2023-06-10T04:08:01;2.97;;;2.17;;
37321;SDS011;23697;48.684;9.032;2023-06-10T04:10:27;3.40;;;2.33;;
37321;SDS011;23697;48.684;9.032;2023-06-10T04:12:56;3.88;;;2.60;;
37321;SDS011;23697;48.684;9.032;2023-06-10T04:15:23;3.80;;;2.40;;
37321;SDS011;23697;48.684;9.032;2023-06-10T04:17:49;2.88;;;2.20;;
37321;SDS011;23697;48.684;9.032;2023-06-10T04:20:16;3.97;;;2.30;;
37321;SDS011;23697;48.684;9.032;2023-06-10T04:22:43;2.97;;;2.05;;
37321;SDS011;23697;48.684;9.032;2023-06-10T04:25:10;3.08;;;2.40;;
37321;SDS011;23697;48.684;9.032;2023-06-10T04:27:37;3.65;;;2.40;;
37321;SDS011;23697;48.684;9.032;2023-06-10T04:30:06;3.75;;;2.63;;
37321;SDS011;23697;48.684;9.032;2023-06-10T04:32:34;3.45;;;2.40;;
37321;SDS011;23697;48.684;9.032;2023-06-10T04:35:00;3.83;;;2.50;;
37321;SDS011;23697;48.684;9.032;2023-06-10T04:37:27;2.88;;;2.30;;
37321;SDS011;23697;48.684;9.032;2023-06-10T04:39:58;2.92;;;2.33;;
37321;SDS011;23697;48.684;9.032;2023-06-10T04:42:25;3.75;;;2.50;;
37321;SDS011;23697;48.684;9.032;2023-06-10T04:44:52;3.78;;;2.60;;
37321;SDS011;23697;48.684;9.032;2023-06-10T04:50:05;4.38;;;2.85;;
37321;SDS011;23697;48.684;9.032;2023-06-10T04:52:33;3.42;;;2.20;;
37321;SDS011;23697;48.684;9.032;2023-06-10T04:54:59;4.05;;;2.20;;
37321;SDS011;23697;48.684;9.032;2023-06-10T04:57:27;3.33;;;2.38;;
37321;SDS011;23697;48.684;9.032;2023-06-10T04:59:54;3.65;;;2.60;;
37321;SDS011;23697;48.684;9.032;2023-06-10T05:02:21;2.88;;;2.20;;
37321;SDS011;23697;48.684;9.032;2023-06-10T05:04:49;5.40;;;2.90;;
37321;SDS011;23697;48.684;9.032;2023-06-10T05:07:16;3.58;;;2.63;;
37321;SDS011;23697;48.684;9.032;2023-06-10T05:09:43;2.72;;;2.22;;
37321;SDS011;23697;48.684;9.032;2023-06-10T05:12:10;3.55;;;2.30;;
37321;SDS011;23697;48.684;9.032;2023-06-10T05:14:37;2.83;;;2.30;;
37321;SDS011;23697;48.684;9.032;2023-06-10T05:17:04;3.55;;;2.40;;
37321;SDS011;23697;48.684;9.032;2023-06-10T05:19:31;2.25;;;1.77;;
37321;SDS011;23697;48.684;9.032;2023-06-10T05:21:59;2.28;;;1.90;;
37321;SDS011;23697;48.684;9.032;2023-06-10T05:24:26;3.67;;;2.08;;
37321;SDS011;23697;48.684;9.032;2023-06-10T05:26:54;1.73;;;1.60;;
37321;SDS011;23697;48.684;9.032;2023-06-10T05:29:21;2.45;;;1.70;;
37321;SDS011;23697;48.684;9.032;2023-06-10T05:31:48;2.22;;;1.80;;
37321;SDS011;23697;48.684;9.032;2023-06-10T05:34:14;2.40;;;1.80;;
37321;SDS011;23697;48.684;9.032;2023-06-10T05:36:41;2.35;;;1.90;;
37321;SDS011;23697;48.684;9.032;2023-06-10T05:39:10;2.63;;;1.88;;
37321;SDS011;23697;48.684;9.032;2023-06-10T05:41:37;2.38;;;1.95;;
37321;SDS011;23697;48.684;9.032;2023-06-10T05:44:03;3.05;;;1.90;;
37321;SDS011;23697;48.684;9.032;2023-06-10T05:46:30;3.33;;;1.95;;
37321;SDS011;23697;48.684;9.032;2023-06-10T05:48:57;3.28;;;2.08;;
37321;SDS011;23697;48.684;9.032;2023-06-10T05:51:24;1.92;;;1.63;;
37321;SDS011;23697;48.684;9.032;2023-06-10T05:53:52;2.17;;;1.73;;
37321;SDS011;23697;48.684;9.032;2023-06-10T05:56:20;4.68;;;2.35;;
37321;SDS011;23697;48.684;9.032;2023-06-10T05:58:47;1.83;;;1.67;;
37321;SDS011;23697;48.684;9.032;2023-06-10T06:01:14;2.97;;;2.00;;
37321;SDS011;23697;48.684;9.032;2023-06-10T06:03:41;2.50;;;1.73;;
37321;SDS011;23697;48.684;9.032;2023-06-10T06:06:08;1.88;;;1.42;;
37321;SDS011;23697;48.684;9.032;2023-06-10T06:08:35;3.03;;;2.13;;
37321;SDS011;23697;48.684;9.032;2023-06-10T06:11:02;3.10;;;2.10;;
37321;SDS011;23697;48.684;9.032;2023-06-10T06:13:30;3.92;;;2.30;;
37321;SDS011;23697;48.684;9.032;2023-06-10T06:15:57;3.30;;;1.90;;
37321;SDS011;23697;48.684;9.032;2023-06-10T06:18:23;2.92;;;2.10;;
37321;SDS011;23697;48.684;9.032;2023-06-10T06:20:50;3.28;;;2.10;;
37321;SDS011;23697;48.684;9.032;2023-06-10T06:23:17;2.60;;;2.00;;
37321;SDS011;23697;48.684;9.032;2023-06-10T06:25:44;2.75;;;1.92;;
37321;SDS011;23697;48.684;9.032;2023-06-10T06:28:11;2.10;;;1.73;;
37321;SDS011;23697;48.684;9.032;2023-06-10T06:30:39;2.47;;;1.80;;
37321;SDS011;23697;48.684;9.032;2023-06-10T06:33:06;3.10;;;2.03;;
37321;SDS011;23697;48.684;9.032;2023-06-10T06:35:33;3.38;;;2.10;;
37321;SDS011;23697;48.684;9.032;2023-06-10T06:38:00;5.43;;;2.65;;
37321;SDS011;23697;48.684;9.032;2023-06-10T06:40:29;2.63;;;2.00;;
37321;SDS011;23697;48.684;9.032;2023-06-10T06:42:56;2.22;;;1.67;;
37321;SDS011;23697;48.684;9.032;2023-06-10T06:45:22;2.55;;;1.80;;
37321;SDS011;23697;48.684;9.032;2023-06-10T06:47:51;2.03;;;1.75;;
37321;SDS011;23697;48.684;9.032;2023-06-10T06:50:17;3.15;;;1.98;;
37321;SDS011;23697;48.684;9.032;2023-06-10T06:52:44;3.50;;;1.90;;
37321;SDS011;23697;48.684;9.032;2023-06-10T06:55:11;4.30;;;2.10;;
37321;SDS011;23697;48.684;9.032;2023-06-10T06:57:38;3.25;;;2.05;;
37321;SDS011;23697;48.684;9.032;2023-06-10T07:00:05;2.97;;;1.80;;
37321;SDS011;23697;48.684;9.032;2023-06-10T07:02:34;3.15;;;2.10;;
37321;SDS011;23697;48.684;9.032;2023-06-10T07:05:02;3.13;;;2.00;;
37321;SDS011;23697;48.684;9.032;2023-06-10T07:07:30;1.98;;;1.73;;
37321;SDS011;23697;48.684;9.032;2023-06-10T07:09:57;3.13;;;1.90;;
37321;SDS011;23697;48.684;9.032;2023-06-10T07:12:24;1.85;;;1.60;;
37321;SDS011;23697;48.684;9.032;2023-06-10T07:14:50;3.65;;;2.28;;
37321;SDS011;23697;48.684;9.032;2023-06-10T07:17:17;3.47;;;2.30;;
37321;SDS011;23697;48.684;9.032;2023-06-10T07:19:44;2.47;;;2.00;;
37321;SDS011;23697;48.684;9.032;2023-06-10T07:22:13;3.50;;;2.38;;
37321;SDS011;23697;48.684;9.032;2023-06-10T07:24:40;2.67;;;1.88;;
37321;SDS011;23697;48.684;9.032;2023-06-10T07:27:08;3.55;;;2.35;;
37321;SDS011;23697;48.684;9.032;2023-06-10T07:29:35;3.53;;;1.85;;
37321;SDS011;23697;48.684;9.032;2023-06-10T07:32:02;2.85;;;2.28;;
37321;SDS011;23697;48.684;9.032;2023-06-10T07:34:30;2.47;;;1.88;;
37321;SDS011;23697;48.684;9.032;2023-06-10T07:36:57;2.00;;;1.80;;
37321;SDS011;23697;48.684;9.032;2023-06-10T07:39:25;2.55;;;1.90;;
37321;SDS011;23697;48.684;9.032;2023-06-10T07:41:52;2.00;;;1.65;;
37321;SDS011;23697;48.684;9.032;2023-06-10T07:44:22;2.30;;;1.83;;
37321;SDS011;23697;48.684;9.032;2023-06-10T07:46:51;2.03;;;1.60;;
37321;SDS011;23697;48.684;9.032;2023-06-10T07:49:18;2.50;;;1.65;;
37321;SDS011;23697;48.684;9.032;2023-06-10T07:51:45;2.15;;;1.77;;
37321;SDS011;23697;48.684;9.032;2023-06-10T07:54:12;2.15;;;1.60;;
37321;SDS011;23697;48.684;9.032;2023-06-10T07:56:40;1.67;;;1.50;;
37321;SDS011;23697;48.684;9.032;2023-06-10T07:59:07;2.15;;;1.70;;
37321;SDS011;23697;48.684;9.032;2023-06-10T08:01:34;2.65;;;1.80;;
37321;SDS011;23697;48.684;9.032;2023-06-10T08:04:03;2.22;;;1.85;;
37321;SDS011;23697;48.684;9.032;2023-06-10T08:06:30;3.70;;;2.38;;
37321;SDS011;23697;48.684;9.032;2023-06-10T08:08:57;2.15;;;1.75;;
37321;SDS011;23697;48.684;9.032;2023-06-10T08:11:25;1.85;;;1.58;;
37321;SDS011;23697;48.684;9.032;2023-06-10T08:13:54;2.55;;;1.80;;
37321;SDS011;23697;48.684;9.032;2023-06-10T08:16:21;2.65;;;1.80;;
37321;SDS011;23697;48.684;9.032;2023-06-10T08:18:48;2.17;;;1.70;;
37321;SDS011;23697;48.684;9.032;2023-06-10T08:21:15;2.38;;;1.80;;
37321;SDS011;23697;48.684;9.032;2023-06-10T08:23:42;3.95;;;2.10;;
37321;SDS011;23697;48.684;9.032;2023-06-10T08:26:10;1.88;;;1.65;;
37321;SDS011;23697;48.684;9.032;2023-06-10T08:28:37;2.63;;;1.70;;
37321;SDS011;23697;48.684;9.032;2023-06-10T08:31:05;3.53;;;2.13;;
37321;SDS011;23697;48.684;9.032;2023-06-10T08:33:32;1.83;;;1.60;;
37321;SDS011;23697;48.684;9.032;2023-06-10T08:35:59;3.67;;;1.80;;
37321;SDS011;23697;48.684;9.032;2023-06-10T08:38:25;2.58;;;2.00;;
37321;SDS011;23697;48.684;9.032;2023-06-10T08:40:53;2.22;;;1.88;;
37321;SDS011;23697;48.684;9.032;2023-06-10T08:43:27;2.22;;;1.70;;
37321;SDS011;23697;48.684;9.032;2023-06-10T08:45:59;1.75;;;1.63;;
37321;SDS011;23697;48.684;9.032;2023-06-10T08:48:29;2.78;;;1.95;;
37321;SDS011;23697;48.684;9.032;2023-06-10T08:50:56;2.55;;;1.85;;
37321;SDS011;23697;48.684;9.032;2023-06-10T08:53:24;2.90;;;1.80;;
37321;SDS011;23697;48.684;9.032;2023-06-10T08:55:53;3.47;;;2.10;;
37321;SDS011;23697;48.684;9.032;2023-06-10T08:58:26;2.28;;;1.50;;
37321;SDS011;23697;48.684;9.032;2023-06-10T09:00:54;2.05;;;1.52;;
37321;SDS011;23697;48.684;9.032;2023-06-10T09:03:26;2.72;;;1.75;;
37321;SDS011;23697;48.684;9.032;2023-06-10T09:05:54;2.75;;;1.73;;
37321;SDS011;23697;48.684;9.032;2023-06-10T09:08:22;3.05;;;1.80;;
37321;SDS011;23697;48.684;9.032;2023-06-10T09:10:50;2.30;;;1.73;;
37321;SDS011;23697;48.684;9.032;2023-06-10T09:13:17;1.90;;;1.60;;
37321;SDS011;23697;48.684;9.032;2023-06-10T09:15:43;2.67;;;1.75;;
37321;SDS011;23697;48.684;9.032;2023-06-10T09:18:11;2.20;;;1.90;;
37321;SDS011;23697;48.684;9.032;2023-06-10T09:20:38;1.75;;;1.50;;
37321;SDS011;23697;48.684;9.032;2023-06-10T09:23:07;1.95;;;1.50;;
37321;SDS011;23697;48.684;9.032;2023-06-10T09:25:35;1.80;;;1.42;;
37321;SDS011;23697;48.684;9.032;2023-06-10T09:28:03;2.10;;;1.58;;
37321;SDS011;23697;48.684;9.032;2023-06-10T09:30:31;1.70;;;1.60;;
37321;SDS011;23697;48.684;9.032;2023-06-10T09:33:00;2.00;;;1.55;;
37321;SDS011;23697;48.684;9.032;2023-06-10T09:35:28;2.05;;;1.60;;
37321;SDS011;23697;48.684;9.032;2023-06-10T09:37:57;1.70;;;1.50;;
37321;SDS011;23697;48.684;9.032;2023-06-10T09:40:27;1.65;;;1.55;;
37321;SDS011;23697;48.684;9.032;2023-06-10T09:42:57;1.73;;;1.50;;
37321;SDS011;23697;48.684;9.032;2023-06-10T09:45:28;1.90;;;1.50;;
37321;SDS011;23697;48.684;9.032;2023-06-10T09:47:57;2.60;;;1.80;;
37321;SDS011;23697;48.684;9.032;2023-06-10T09:50:32;2.78;;;1.98;;
37321;SDS011;23697;48.684;9.032;2023-06-10T09:52:59;1.90;;;1.70;;
37321;SDS011;23697;48.684;9.032;2023-06-10T09:55:36;2.40;;;1.70;;
37321;SDS011;23697;48.684;9.032;2023-06-10T09:58:04;2.90;;;1.88;;
37321;SDS011;23697;48.684;9.032;2023-06-10T10:00:31;2.85;;;2.00;;
37321;SDS011;23697;48.684;9.032;2023-06-10T10:06:18;1.50;;;1.30;;
37321;SDS011;23697;48.684;9.032;2023-06-10T10:08:46;2.03;;;1.63;;
37321;SDS011;23697;48.684;9.032;2023-06-10T10:11:34;2.15;;;1.58;;
37321;SDS011;23697;48.684;9.032;2023-06-10T10:14:05;2.28;;;1.80;;
37321;SDS011;23697;48.684;9.032;2023-06-10T10:16:34;2.65;;;1.88;;
37321;SDS011;23697;48.684;9.032;2023-06-10T10:19:06;1.92;;;1.50;;
37321;SDS011;23697;48.684;9.032;2023-06-10T10:21:37;2.08;;;1.67;;
37321;SDS011;23697;48.684;9.032;2023-06-10T10:24:09;1.75;;;1.63;;
37321;SDS011;23697;48.684;9.032;2023-06-10T10:26:43;2.22;;;1.50;;
37321;SDS011;23697;48.684;9.032;2023-06-10T10:29:14;1.40;;;1.30;;
37321;SDS011;23697;48.684;9.032;2023-06-10T10:31:46;2.63;;;1.80;;
37321;SDS011;23697;48.684;9.032;2023-06-10T10:34:20;2.00;;;1.58;;
37321;SDS011;23697;48.684;9.032;2023-06-10T10:37:19;2.53;;;1.85;;
37321;SDS011;23697;48.684;9.032;2023-06-10T10:40:18;2.03;;;1.58;;
37321;SDS011;23697;48.684;9.032;2023-06-10T10:43:11;1.38;;;1.27;;
37321;SDS011;23697;48.684;9.032;2023-06-10T10:45:41;1.40;;;1.30;;
37321;SDS011;23697;48.684;9.032;2023-06-10T10:48:45;1.90;;;1.48;;
37321;SDS011;23697;48.684;9.032;2023-06-10T10:51:37;2.28;;;1.60;;
37321;SDS011;23697;48.684;9.032;2023-06-10T10:54:20;2.53;;;1.67;;
37321;SDS011;23697;48.684;9.032;2023-06-10T10:57:13;1.45;;;1.35;;
37321;SDS011;23697;48.684;9.032;2023-06-10T10:59:50;1.55;;;1.45;;
37321;SDS011;23697;48.684;9.032;2023-06-10T11:02:31;2.03;;;1.52;;
37321;SDS011;23697;48.684;9.032;2023-06-10T11:05:14;1.60;;;1.50;;
37321;SDS011;23697;48.684;9.032;2023-06-10T11:07:51;1.45;;;1.30;;
37321;SDS011;23697;48.684;9.032;2023-06-10T11:10:20;1.55;;;1.35;;
37321;SDS011;23697;48.684;9.032;2023-06-10T11:12:58;2.25;;;1.60;;
37321;SDS011;23697;48.684;9.032;2023-06-10T11:15:29;1.67;;;1.40;;
37321;SDS011;23697;48.684;9.032;2023-06-10T11:18:12;1.42;;;1.30;;
37321;SDS011;23697;48.684;9.032;2023-06-10T11:23:39;1.63;;;1.40;;
37321;SDS011;23697;48.684;9.032;2023-06-10T11:29:06;1.85;;;1.50;;
37321;SDS011;23697;48.684;9.032;2023-06-10T11:34:26;2.70;;;1.40;;
37321;SDS011;23697;48.684;9.032;2023-06-10T11:37:01;1.63;;;1.52;;
37321;SDS011;23697;48.684;9.032;2023-06-10T11:39:29;2.08;;;1.52;;
37321;SDS011;23697;48.684;9.032;2023-06-10T11:42:10;1.85;;;1.55;;
37321;SDS011;23697;48.684;9.032;2023-06-10T11:44:37;2.00;;;1.50;;
37321;SDS011;23697;48.684;9.032;2023-06-10T11:47:21;1.40;;;1.30;;
37321;SDS011;23697;48.684;9.032;2023-06-10T11:53:35;2.25;;;1.60;;
37321;SDS011;23697;48.684;9.032;2023-06-10T11:56:05;2.05;;;1.70;;
37321;SDS011;23697;48.684;9.032;2023-06-10T11:58:36;3.55;;;1.50;;
37321;SDS011;23697;48.684;9.032;2023-06-10T12:01:05;1.50;;;1.40;;
37321;SDS011;23697;48.684;9.032;2023-06-10T12:06:38;2.38;;;1.50;;
37321;SDS011;23697;48.684;9.032;2023-06-10T12:09:09;2.03;;;1.40;;
37321;SDS011;23697;48.684;9.032;2023-06-10T12:11:55;1.63;;;1.50;;
37321;SDS011;23697;48.684;9.032;2023-06-10T12:15:22;1.40;;;1.30;;
37321;SDS011;23697;48.684;9.032;2023-06-10T12:18:23;1.77;;;1.48;;
37321;SDS011;23697;48.684;9.032;2023-06-10T12:20:51;1.73;;;1.60;;
37321;SDS011;23697;48.684;9.032;2023-06-10T12:23:18;1.48;;;1.38;;
37321;SDS011;23697;48.684;9.032;2023-06-10T12:25:51;2.20;;;1.70;;
37321;SDS011;23697;48.684;9.032;2023-06-10T12:28:20;2.05;;;1.75;;
37321;SDS011;23697;48.684;9.032;2023-06-10T12:33:32;1.77;;;1.67;;
37321;SDS011;23697;48.684;9.032;2023-06-10T12:36:00;2.13;;;1.63;;
37321;SDS011;23697;48.684;9.032;2023-06-10T12:38:27;1.73;;;1.38;;
37321;SDS011;23697;48.684;9.032;2023-06-10T12:40:54;1.52;;;1.42;;
37321;SDS011;23697;48.684;9.032;2023-06-10T12:43:30;1.90;;;1.60;;
37321;SDS011;23697;48.684;9.032;2023-06-10T12:46:07;1.80;;;1.50;;
37321;SDS011;23697;48.684;9.032;2023-06-10T12:51:17;1.67;;;1.58;;
37321;SDS011;23697;48.684;9.032;2023-06-10T12:53:44;1.67;;;1.50;;
37321;SDS011;23697;48.684;9.032;2023-06-10T12:56:11;1.60;;;1.50;;
37321;SDS011;23697;48.684;9.032;2023-06-10T12:58:38;1.80;;;1.40;;
37321;SDS011;23697;48.684;9.032;2023-06-10T13:01:05;1.98;;;1.60;;
37321;SDS011;23697;48.684;9.032;2023-06-10T13:03:32;1.95;;;1.60;;
37321;SDS011;23697;48.684;9.032;2023-06-10T13:06:00;2.22;;;1.65;;
37321;SDS011;23697;48.684;9.032;2023-06-10T13:08:28;1.80;;;1.40;;
37321;SDS011;23697;48.684;9.032;2023-06-10T13:10:55;1.75;;;1.45;;
37321;SDS011;23697;48.684;9.032;2023-06-10T13:13:22;1.65;;;1.48;;
37321;SDS011;23697;48.684;9.032;2023-06-10T13:15:50;2.42;;;1.60;;
37321;SDS011;23697;48.684;9.032;2023-06-10T13:18:17;2.33;;;1.83;;
37321;SDS011;23697;48.684;9.032;2023-06-10T13:20:44;2.22;;;1.67;;
37321;SDS011;23697;48.684;9.032;2023-06-10T13:23:11;2.40;;;1.70;;
37321;SDS011;23697;48.684;9.032;2023-06-10T13:25:40;2.10;;;1.70;;
37321;SDS011;23697;48.684;9.032;2023-06-10T13:28:09;2.65;;;1.75;;
37321;SDS011;23697;48.684;9.032;2023-06-10T13:30:36;1.50;;;1.40;;
37321;SDS011;23697;48.684;9.032;2023-06-10T13:33:03;2.30;;;1.60;;
37321;SDS011;23697;48.684;9.032;2023-06-10T13:35:30;2.50;;;1.45;;
37321;SDS011;23697;48.684;9.032;2023-06-10T13:37:57;1.75;;;1.60;;
37321;SDS011;23697;48.684;9.032;2023-06-10T13:40:24;1.60;;;1.40;;
37321;SDS011;23697;48.684;9.032;2023-06-10T13:42:52;2.15;;;1.60;;
37321;SDS011;23697;48.684;9.032;2023-06-10T13:45:19;1.65;;;1.45;;
37321;SDS011;23697;48.684;9.032;2023-06-10T13:47:46;2.55;;;1.70;;
37321;SDS011;23697;48.684;9.032;2023-06-10T13:50:13;2.22;;;1.50;;
37321;SDS011;23697;48.684;9.032;2023-06-10T13:52:40;1.63;;;1.52;;
37321;SDS011;23697;48.684;9.032;2023-06-10T13:55:10;1.60;;;1.50;;
37321;SDS011;23697;48.684;9.032;2023-06-10T13:57:40;2.25;;;1.60;;
37321;SDS011;23697;48.684;9.032;2023-06-10T14:00:09;1.55;;;1.40;;
37321;SDS011;23697;48.684;9.032;2023-06-10T14:02:37;2.10;;;1.58;;
37321;SDS011;23697;48.684;9.032;2023-06-10T14:31:03;1.95;;;1.48;;
37321;SDS011;23697;48.684;9.032;2023-06-10T14:40:23;2.10;;;1.65;;
37321;SDS011;23697;48.684;9.032;2023-06-10T14:43:09;2.45;;;1.65;;
37321;SDS011;23697;48.684;9.032;2023-06-10T14:45:36;2.22;;;1.60;;
37321;SDS011;23697;48.684;9.032;2023-06-10T14:48:07;1.48;;;1.38;;
37321;SDS011;23697;48.684;9.032;2023-06-10T14:50:35;1.25;;;1.15;;
37321;SDS011;23697;48.684;9.032;2023-06-10T14:53:02;2.00;;;1.55;;
37321;SDS011;23697;48.684;9.032;2023-06-10T14:55:40;1.52;;;1.40;;
37321;SDS011;23697;48.684;9.032;2023-06-10T14:58:08;2.15;;;1.60;;
37321;SDS011;23697;48.684;9.032;2023-06-10T15:00:36;1.43;;;1.33;;
37321;SDS011;23697;48.684;9.032;2023-06-10T15:03:03;2.55;;;1.60;;
37321;SDS011;23697;48.684;9.032;2023-06-10T15:05:32;1.65;;;1.50;;
37321;SDS011;23697;48.684;9.032;2023-06-10T15:08:01;1.45;;;1.35;;
37321;SDS011;23697;48.684;9.032;2023-06-10T15:10:29;1.80;;;1.50;;
37321;SDS011;23697;48.684;9.032;2023-06-10T15:13:03;1.73;;;1.55;;
37321;SDS011;23697;48.684;9.032;2023-06-10T15:15:30;1.60;;;1.38;;
37321;SDS011;23697;48.684;9.032;2023-06-10T15:18:04;1.55;;;1.45;;
37321;SDS011;23697;48.684;9.032;2023-06-10T15:20:35;1.73;;;1.50;;
37321;SDS011;23697;48.684;9.032;2023-06-10T15:23:02;1.50;;;1.40;;
37321;SDS011;23697;48.684;9.032;2023-06-10T15:25:29;1.90;;;1.58;;
37321;SDS011;23697;48.684;9.032;2023-06-10T15:27:55;1.50;;;1.40;;
37321;SDS011;23697;48.684;9.032;2023-06-10T15:30:24;1.80;;;1.50;;
37321;SDS011;23697;48.684;9.032;2023-06-10T15:32:51;1.55;;;1.45;;
37321;SDS011;23697;48.684;9.032;2023-06-10T15:35:18;1.85;;;1.65;;
37321;SDS011;23697;48.684;9.032;2023-06-10T15:37:45;2.00;;;1.58;;
37321;SDS011;23697;48.684;9.032;2023-06-10T15:40:12;2.63;;;1.90;;
37321;SDS011;23697;48.684;9.032;2023-06-10T15:42:38;1.73;;;1.50;;
37321;SDS011;23697;48.684;9.032;2023-06-10T15:45:05;1.77;;;1.50;;
37321;SDS011;23697;48.684;9.032;2023-06-10T15:47:34;1.80;;;1.65;;
37321;SDS011;23697;48.684;9.032;2023-06-10T15:50:01;1.40;;;1.30;;
37321;SDS011;23697;48.684;9.032;2023-06-10T15:52:29;1.58;;;1.48;;
37321;SDS011;23697;48.684;9.032;2023-06-10T15:54:56;2.08;;;1.63;;
37321;SDS011;23697;48.684;9.032;2023-06-10T15:57:22;2.03;;;1.50;;
37321;SDS011;23697;48.684;9.032;2023-06-10T15:59:49;2.28;;;1.70;;
37321;SDS011;23697;48.684;9.032;2023-06-10T16:02:18;1.83;;;1.50;;
37321;SDS011;23697;48.684;9.032;2023-06-10T16:04:49;2.03;;;1.60;;
37321;SDS011;23697;48.684;9.032;2023-06-10T16:07:16;1.95;;;1.58;;
37321;SDS011;23697;48.684;9.032;2023-06-10T16:09:43;1.55;;;1.45;;
37321;SDS011;23697;48.684;9.032;2023-06-10T16:12:10;2.03;;;1.70;;
37321;SDS011;23697;48.684;9.032;2023-06-10T16:14:37;1.73;;;1.50;;
37321;SDS011;23697;48.684;9.032;2023-06-10T16:17:04;1.92;;;1.60;;
37321;SDS011;23697;48.684;9.032;2023-06-10T16:19:31;1.85;;;1.58;;
37321;SDS011;23697;48.684;9.032;2023-06-10T16:22:00;1.90;;;1.52;;
37321;SDS011;23697;48.684;9.032;2023-06-10T16:24:26;1.80;;;1.60;;
37321;SDS011;23697;48.684;9.032;2023-06-10T16:26:53;2.58;;;1.55;;
37321;SDS011;23697;48.684;9.032;2023-06-10T16:29:20;1.83;;;1.45;;